sensor_id;sensor_type;location;lat;lon;timestamp;temperature;humidity
38788;DHT22;24536;45.488;12.238;2023-08-20T00:01:31;30.00;80.80
38788;DHT22;24536;45.488;12.238;2023-08-20T00:03:58;29.90;81.10
38788;DHT22;24536;45.488;12.238;2023-08-20T00:06:24;29.90;81.10
38788;DHT22;24536;45.488;12.238;2023-08-20T00:08:50;29.90;81.30
38788;DHT22;24536;45.488;12.238;2023-08-20T00:11:16;29.90;81.50
38788;DHT22;24536;45.488;12.238;2023-08-20T00:13:42;29.90;81.50
38788;DHT22;24536;45.488;12.238;2023-08-20T00:16:09;29.90;81.70
38788;DHT22;24536;45.488;12.238;2023-08-20T00:18:35;29.80;81.70
38788;DHT22;24536;45.488;12.238;2023-08-20T00:21:00;29.80;81.70
38788;DHT22;24536;45.488;12.238;2023-08-20T00:23:27;29.80;81.90
38788;DHT22;24536;45.488;12.238;2023-08-20T00:25:53;29.80;82.10
38788;DHT22;24536;45.488;12.238;2023-08-20T00:28:22;29.70;82.00
38788;DHT22;24536;45.488;12.238;2023-08-20T00:30:47;29.70;82.20
38788;DHT22;24536;45.488;12.238;2023-08-20T00:33:14;29.70;82.30
38788;DHT22;24536;45.488;12.238;2023-08-20T00:35:40;29.60;82.50
38788;DHT22;24536;45.488;12.238;2023-08-20T00:38:06;29.60;82.60
38788;DHT22;24536;45.488;12.238;2023-08-20T00:40:31;29.60;82.80
38788;DHT22;24536;45.488;12.238;2023-08-20T00:42:57;29.60;82.90
38788;DHT22;24536;45.488;12.238;2023-08-20T00:45:24;29.50;82.90
38788;DHT22;24536;45.488;12.238;2023-08-20T00:47:50;29.50;82.90
38788;DHT22;24536;45.488;12.238;2023-08-20T00:50:16;29.60;83.10
38788;DHT22;24536;45.488;12.238;2023-08-20T00:52:42;29.60;83.20
38788;DHT22;24536;45.488;12.238;2023-08-20T00:55:10;29.60;83.20
38788;DHT22;24536;45.488;12.238;2023-08-20T00:57:37;29.60;83.20
38788;DHT22;24536;45.488;12.238;2023-08-20T01:00:04;29.60;83.20
38788;DHT22;24536;45.488;12.238;2023-08-20T01:02:35;29.60;83.20
38788;DHT22;24536;45.488;12.238;2023-08-20T01:05:02;29.60;83.20
38788;DHT22;24536;45.488;12.238;2023-08-20T01:12:26;29.60;83.40
38788;DHT22;24536;45.488;12.238;2023-08-20T01:14:52;29.60;83.40
38788;DHT22;24536;45.488;12.238;2023-08-20T01:17:17;29.60;83.60
38788;DHT22;24536;45.488;12.238;2023-08-20T01:19:43;29.50;83.50
38788;DHT22;24536;45.488;12.238;2023-08-20T01:28:28;29.50;83.70
38788;DHT22;24536;45.488;12.238;2023-08-20T01:30:56;29.40;83.60
38788;DHT22;24536;45.488;12.238;2023-08-20T01:33:23;29.40;83.70
38788;DHT22;24536;45.488;12.238;2023-08-20T01:35:50;29.40;83.90
38788;DHT22;24536;45.488;12.238;2023-08-20T01:38:16;29.40;83.90
38788;DHT22;24536;45.488;12.238;2023-08-20T01:40:42;29.40;84.00
38788;DHT22;24536;45.488;12.238;2023-08-20T01:43:08;29.30;84.10
38788;DHT22;24536;45.488;12.238;2023-08-20T01:45:34;29.30;84.20
38788;DHT22;24536;45.488;12.238;2023-08-20T01:48:00;29.30;84.20
38788;DHT22;24536;45.488;12.238;2023-08-20T01:50:25;29.30;84.30
38788;DHT22;24536;45.488;12.238;2023-08-20T01:52:51;29.20;84.40
38788;DHT22;24536;45.488;12.238;2023-08-20T01:55:17;29.20;84.70
38788;DHT22;24536;45.488;12.238;2023-08-20T01:57:42;29.10;84.60
38788;DHT22;24536;45.488;12.238;2023-08-20T02:00:09;29.10;84.80
38788;DHT22;24536;45.488;12.238;2023-08-20T02:02:35;29.10;84.80
38788;DHT22;24536;45.488;12.238;2023-08-20T02:05:01;29.10;84.90
38788;DHT22;24536;45.488;12.238;2023-08-20T02:07:27;29.10;85.00
38788;DHT22;24536;45.488;12.238;2023-08-20T02:09:52;29.10;84.90
38788;DHT22;24536;45.488;12.238;2023-08-20T02:12:18;29.10;85.00
38788;DHT22;24536;45.488;12.238;2023-08-20T02:14:44;29.00;84.90
38788;DHT22;24536;45.488;12.238;2023-08-20T02:17:09;29.00;84.90
38788;DHT22;24536;45.488;12.238;2023-08-20T02:19:37;29.00;85.40
38788;DHT22;24536;45.488;12.238;2023-08-20T02:22:03;29.00;84.90
38788;DHT22;24536;45.488;12.238;2023-08-20T02:24:29;29.00;84.90
38788;DHT22;24536;45.488;12.238;2023-08-20T02:26:55;29.00;85.00
38788;DHT22;24536;45.488;12.238;2023-08-20T02:29:20;29.00;85.10
38788;DHT22;24536;45.488;12.238;2023-08-20T02:31:46;28.90;85.10
38788;DHT22;24536;45.488;12.238;2023-08-20T02:34:12;28.80;85.20
38788;DHT22;24536;45.488;12.238;2023-08-20T02:36:37;28.70;85.70
38788;DHT22;24536;45.488;12.238;2023-08-20T02:39:03;28.70;85.80
38788;DHT22;24536;45.488;12.238;2023-08-20T02:41:35;28.60;85.90
38788;DHT22;24536;45.488;12.238;2023-08-20T02:44:02;28.60;86.10
38788;DHT22;24536;45.488;12.238;2023-08-20T02:46:28;28.60;86.20
38788;DHT22;24536;45.488;12.238;2023-08-20T02:48:54;28.60;86.10
38788;DHT22;24536;45.488;12.238;2023-08-20T02:51:20;28.60;86.20
38788;DHT22;24536;45.488;12.238;2023-08-20T02:53:45;28.60;86.10
38788;DHT22;24536;45.488;12.238;2023-08-20T02:56:11;28.60;86.10
38788;DHT22;24536;45.488;12.238;2023-08-20T02:58:37;28.60;86.00
38788;DHT22;24536;45.488;12.238;2023-08-20T03:01:03;28.60;86.10
38788;DHT22;24536;45.488;12.238;2023-08-20T03:55:27;28.10;86.70
38788;DHT22;24536;45.488;12.238;2023-08-20T03:57:53;28.00;86.70
38788;DHT22;24536;45.488;12.238;2023-08-20T04:00:18;28.00;86.90
38788;DHT22;24536;45.488;12.238;2023-08-20T04:02:44;28.00;86.80
38788;DHT22;24536;45.488;12.238;2023-08-20T04:05:10;28.00;87.00
38788;DHT22;24536;45.488;12.238;2023-08-20T04:07:35;28.00;86.90
38788;DHT22;24536;45.488;12.238;2023-08-20T04:10:01;28.00;86.80
38788;DHT22;24536;45.488;12.238;2023-08-20T04:12:27;28.00;86.60
38788;DHT22;24536;45.488;12.238;2023-08-20T04:14:52;28.00;86.50
38788;DHT22;24536;45.488;12.238;2023-08-20T04:17:18;28.10;86.40
38788;DHT22;24536;45.488;12.238;2023-08-20T04:19:44;28.10;86.20
38788;DHT22;24536;45.488;12.238;2023-08-20T04:22:09;28.10;86.20
38788;DHT22;24536;45.488;12.238;2023-08-20T04:24:35;28.00;86.10
38788;DHT22;24536;45.488;12.238;2023-08-20T04:27:01;28.00;86.10
38788;DHT22;24536;45.488;12.238;2023-08-20T04:29:26;27.90;86.00
38788;DHT22;24536;45.488;12.238;2023-08-20T04:31:53;27.90;86.20
38788;DHT22;24536;45.488;12.238;2023-08-20T04:34:18;27.90;86.30
38788;DHT22;24536;45.488;12.238;2023-08-20T04:36:44;27.90;86.30
38788;DHT22;24536;45.488;12.238;2023-08-20T04:39:09;27.80;86.20
38788;DHT22;24536;45.488;12.238;2023-08-20T04:41:35;27.80;86.10
38788;DHT22;24536;45.488;12.238;2023-08-20T04:44:01;27.90;86.00
38788;DHT22;24536;45.488;12.238;2023-08-20T04:46:27;27.90;85.70
38788;DHT22;24536;45.488;12.238;2023-08-20T04:48:54;27.80;85.70
38788;DHT22;24536;45.488;12.238;2023-08-20T04:51:19;27.90;85.70
38788;DHT22;24536;45.488;12.238;2023-08-20T04:53:45;27.90;85.50
38788;DHT22;24536;45.488;12.238;2023-08-20T04:56:12;27.90;85.40
38788;DHT22;24536;45.488;12.238;2023-08-20T04:58:38;27.90;85.20
38788;DHT22;24536;45.488;12.238;2023-08-20T05:01:04;27.90;85.00
38788;DHT22;24536;45.488;12.238;2023-08-20T05:03:31;27.90;84.80
38788;DHT22;24536;45.488;12.238;2023-08-20T05:05:57;27.90;84.90
38788;DHT22;24536;45.488;12.238;2023-08-20T05:08:22;27.90;85.00
38788;DHT22;24536;45.488;12.238;2023-08-20T05:10:49;27.90;85.00
38788;DHT22;24536;45.488;12.238;2023-08-20T05:13:16;27.90;84.80
38788;DHT22;24536;45.488;12.238;2023-08-20T05:15:42;28.00;84.50
38788;DHT22;24536;45.488;12.238;2023-08-20T05:18:08;28.10;84.40
38788;DHT22;24536;45.488;12.238;2023-08-20T05:20:33;28.10;84.10
38788;DHT22;24536;45.488;12.238;2023-08-20T05:22:59;28.10;84.30
38788;DHT22;24536;45.488;12.238;2023-08-20T05:25:25;28.10;84.00
38788;DHT22;24536;45.488;12.238;2023-08-20T05:27:51;28.10;83.90
38788;DHT22;24536;45.488;12.238;2023-08-20T05:30:17;28.10;83.90
38788;DHT22;24536;45.488;12.238;2023-08-20T05:32:43;28.10;83.80
38788;DHT22;24536;45.488;12.238;2023-08-20T05:35:08;28.10;83.70
38788;DHT22;24536;45.488;12.238;2023-08-20T05:37:34;28.10;83.80
38788;DHT22;24536;45.488;12.238;2023-08-20T05:40:00;28.10;83.80
38788;DHT22;24536;45.488;12.238;2023-08-20T05:42:25;28.10;84.00
38788;DHT22;24536;45.488;12.238;2023-08-20T05:44:51;28.10;84.10
38788;DHT22;24536;45.488;12.238;2023-08-20T05:47:17;28.10;84.10
38788;DHT22;24536;45.488;12.238;2023-08-20T05:49:42;28.10;84.00
38788;DHT22;24536;45.488;12.238;2023-08-20T05:52:08;28.10;83.90
38788;DHT22;24536;45.488;12.238;2023-08-20T05:54:34;28.10;83.90
38788;DHT22;24536;45.488;12.238;2023-08-20T05:57:00;28.20;84.00
38788;DHT22;24536;45.488;12.238;2023-08-20T05:59:26;28.20;83.90
38788;DHT22;24536;45.488;12.238;2023-08-20T06:01:53;28.30;83.90
38788;DHT22;24536;45.488;12.238;2023-08-20T06:04:20;28.30;83.70
38788;DHT22;24536;45.488;12.238;2023-08-20T06:06:46;28.30;83.50
38788;DHT22;24536;45.488;12.238;2023-08-20T06:09:11;28.30;83.30
38788;DHT22;24536;45.488;12.238;2023-08-20T06:11:37;28.30;83.40
38788;DHT22;24536;45.488;12.238;2023-08-20T06:14:03;28.30;83.20
38788;DHT22;24536;45.488;12.238;2023-08-20T06:16:28;28.30;83.20
38788;DHT22;24536;45.488;12.238;2023-08-20T06:18:54;28.30;83.30
38788;DHT22;24536;45.488;12.238;2023-08-20T06:21:20;28.30;83.20
38788;DHT22;24536;45.488;12.238;2023-08-20T06:23:45;28.30;83.20
38788;DHT22;24536;45.488;12.238;2023-08-20T06:26:11;28.40;83.30
38788;DHT22;24536;45.488;12.238;2023-08-20T06:28:37;28.40;83.10
38788;DHT22;24536;45.488;12.238;2023-08-20T06:31:03;28.50;83.20
38788;DHT22;24536;45.488;12.238;2023-08-20T06:33:29;28.50;82.90
38788;DHT22;24536;45.488;12.238;2023-08-20T06:35:54;28.60;82.70
38788;DHT22;24536;45.488;12.238;2023-08-20T06:38:20;28.60;82.40
38788;DHT22;24536;45.488;12.238;2023-08-20T06:40:46;28.70;82.50
38788;DHT22;24536;45.488;12.238;2023-08-20T06:43:13;28.70;82.30
38788;DHT22;24536;45.488;12.238;2023-08-20T06:45:39;28.70;82.20
38788;DHT22;24536;45.488;12.238;2023-08-20T06:48:04;28.80;82.10
38788;DHT22;24536;45.488;12.238;2023-08-20T06:50:31;28.80;82.00
38788;DHT22;24536;45.488;12.238;2023-08-20T06:52:59;28.90;82.10
38788;DHT22;24536;45.488;12.238;2023-08-20T06:55:26;28.90;81.90
38788;DHT22;24536;45.488;12.238;2023-08-20T06:57:51;29.00;81.70
38788;DHT22;24536;45.488;12.238;2023-08-20T07:00:17;29.00;81.40
38788;DHT22;24536;45.488;12.238;2023-08-20T07:02:44;29.10;81.30
38788;DHT22;24536;45.488;12.238;2023-08-20T07:05:10;29.10;81.10
38788;DHT22;24536;45.488;12.238;2023-08-20T07:07:36;29.10;81.40
38788;DHT22;24536;45.488;12.238;2023-08-20T07:10:01;29.20;80.70
38788;DHT22;24536;45.488;12.238;2023-08-20T07:12:29;29.20;80.60
38788;DHT22;24536;45.488;12.238;2023-08-20T07:14:54;29.30;80.60
38788;DHT22;24536;45.488;12.238;2023-08-20T07:17:20;29.30;80.50
38788;DHT22;24536;45.488;12.238;2023-08-20T07:19:46;29.40;80.40
38788;DHT22;24536;45.488;12.238;2023-08-20T07:22:11;29.50;80.40
38788;DHT22;24536;45.488;12.238;2023-08-20T07:24:37;29.60;80.40
38788;DHT22;24536;45.488;12.238;2023-08-20T07:27:03;29.60;80.10
38788;DHT22;24536;45.488;12.238;2023-08-20T07:29:36;29.60;79.80
38788;DHT22;24536;45.488;12.238;2023-08-20T07:32:01;29.70;79.90
38788;DHT22;24536;45.488;12.238;2023-08-20T07:34:29;29.80;78.90
38788;DHT22;24536;45.488;12.238;2023-08-20T07:36:56;29.80;79.00
38788;DHT22;24536;45.488;12.238;2023-08-20T07:39:22;29.80;78.30
38788;DHT22;24536;45.488;12.238;2023-08-20T07:41:48;29.90;78.50
38788;DHT22;24536;45.488;12.238;2023-08-20T07:44:13;29.90;78.50
38788;DHT22;24536;45.488;12.238;2023-08-20T07:46:39;30.00;78.50
38788;DHT22;24536;45.488;12.238;2023-08-20T07:49:05;30.10;78.40
38788;DHT22;24536;45.488;12.238;2023-08-20T07:51:30;30.10;78.30
38788;DHT22;24536;45.488;12.238;2023-08-20T07:53:56;30.20;78.20
38788;DHT22;24536;45.488;12.238;2023-08-20T07:56:23;30.30;77.60
38788;DHT22;24536;45.488;12.238;2023-08-20T07:58:49;30.30;77.10
38788;DHT22;24536;45.488;12.238;2023-08-20T08:01:15;30.40;77.10
38788;DHT22;24536;45.488;12.238;2023-08-20T08:03:42;30.50;76.90
38788;DHT22;24536;45.488;12.238;2023-08-20T08:06:08;30.50;76.70
38788;DHT22;24536;45.488;12.238;2023-08-20T08:08:33;30.60;76.20
38788;DHT22;24536;45.488;12.238;2023-08-20T08:10:59;30.60;76.30
38788;DHT22;24536;45.488;12.238;2023-08-20T08:13:25;30.70;76.30
38788;DHT22;24536;45.488;12.238;2023-08-20T08:15:52;30.80;76.20
38788;DHT22;24536;45.488;12.238;2023-08-20T08:18:19;30.90;75.60
38788;DHT22;24536;45.488;12.238;2023-08-20T08:20:45;30.90;75.10
38788;DHT22;24536;45.488;12.238;2023-08-20T08:23:14;30.90;75.20
38788;DHT22;24536;45.488;12.238;2023-08-20T08:25:40;31.10;75.70
38788;DHT22;24536;45.488;12.238;2023-08-20T08:28:05;31.10;75.70
38788;DHT22;24536;45.488;12.238;2023-08-20T08:30:34;31.10;75.60
38788;DHT22;24536;45.488;12.238;2023-08-20T08:33:00;31.20;75.20
38788;DHT22;24536;45.488;12.238;2023-08-20T08:35:26;31.30;75.70
38788;DHT22;24536;45.488;12.238;2023-08-20T08:37:51;31.40;76.00
38788;DHT22;24536;45.488;12.238;2023-08-20T08:40:17;31.40;76.00
38788;DHT22;24536;45.488;12.238;2023-08-20T08:42:47;31.40;75.40
38788;DHT22;24536;45.488;12.238;2023-08-20T08:45:14;31.50;75.30
38788;DHT22;24536;45.488;12.238;2023-08-20T08:47:41;31.60;75.60
38788;DHT22;24536;45.488;12.238;2023-08-20T08:50:07;31.60;75.40
38788;DHT22;24536;45.488;12.238;2023-08-20T08:52:37;31.70;74.90
38788;DHT22;24536;45.488;12.238;2023-08-20T08:55:05;31.80;75.10
38788;DHT22;24536;45.488;12.238;2023-08-20T08:57:33;31.90;74.90
38788;DHT22;24536;45.488;12.238;2023-08-20T08:59:58;32.00;74.90
38788;DHT22;24536;45.488;12.238;2023-08-20T09:02:24;32.10;74.60
38788;DHT22;24536;45.488;12.238;2023-08-20T09:04:50;32.10;74.80
38788;DHT22;24536;45.488;12.238;2023-08-20T09:07:16;32.20;74.00
38788;DHT22;24536;45.488;12.238;2023-08-20T09:09:49;32.30;73.70
38788;DHT22;24536;45.488;12.238;2023-08-20T09:12:16;32.40;74.00
38788;DHT22;24536;45.488;12.238;2023-08-20T09:14:46;32.40;73.30
38788;DHT22;24536;45.488;12.238;2023-08-20T09:17:13;32.50;72.60
38788;DHT22;24536;45.488;12.238;2023-08-20T09:19:39;32.50;72.90
38788;DHT22;24536;45.488;12.238;2023-08-20T09:22:05;32.50;72.80
38788;DHT22;24536;45.488;12.238;2023-08-20T09:24:43;32.70;73.10
38788;DHT22;24536;45.488;12.238;2023-08-20T09:27:10;32.70;71.80
38788;DHT22;24536;45.488;12.238;2023-08-20T09:29:54;32.80;72.00
38788;DHT22;24536;45.488;12.238;2023-08-20T09:32:23;32.90;71.50
38788;DHT22;24536;45.488;12.238;2023-08-20T09:34:49;33.00;71.50
38788;DHT22;24536;45.488;12.238;2023-08-20T09:37:17;33.10;71.30
38788;DHT22;24536;45.488;12.238;2023-08-20T09:39:42;33.20;70.90
38788;DHT22;24536;45.488;12.238;2023-08-20T09:42:11;33.20;71.10
38788;DHT22;24536;45.488;12.238;2023-08-20T09:44:40;33.40;71.30
38788;DHT22;24536;45.488;12.238;2023-08-20T09:47:08;33.50;71.30
38788;DHT22;24536;45.488;12.238;2023-08-20T09:49:45;33.60;71.30
38788;DHT22;24536;45.488;12.238;2023-08-20T09:52:14;33.70;69.80
38788;DHT22;24536;45.488;12.238;2023-08-20T09:57:37;33.90;70.00
38788;DHT22;24536;45.488;12.238;2023-08-20T10:00:06;34.00;70.00
38788;DHT22;24536;45.488;12.238;2023-08-20T10:02:35;34.10;69.80
38788;DHT22;24536;45.488;12.238;2023-08-20T10:05:02;34.20;69.40
38788;DHT22;24536;45.488;12.238;2023-08-20T10:07:29;34.20;68.90
38788;DHT22;24536;45.488;12.238;2023-08-20T10:10:01;34.30;68.80
38788;DHT22;24536;45.488;12.238;2023-08-20T10:12:27;34.50;68.50
38788;DHT22;24536;45.488;12.238;2023-08-20T10:14:54;34.60;68.20
38788;DHT22;24536;45.488;12.238;2023-08-20T10:17:22;34.70;68.00
38788;DHT22;24536;45.488;12.238;2023-08-20T10:19:48;34.70;67.60
38788;DHT22;24536;45.488;12.238;2023-08-20T10:22:14;34.90;67.60
38788;DHT22;24536;45.488;12.238;2023-08-20T10:24:47;35.00;66.90
38788;DHT22;24536;45.488;12.238;2023-08-20T10:27:24;35.00;66.50
38788;DHT22;24536;45.488;12.238;2023-08-20T10:29:53;35.10;66.20
38788;DHT22;24536;45.488;12.238;2023-08-20T10:32:19;35.20;66.00
38788;DHT22;24536;45.488;12.238;2023-08-20T10:34:51;35.30;65.80
38788;DHT22;24536;45.488;12.238;2023-08-20T10:37:29;35.40;65.50
38788;DHT22;24536;45.488;12.238;2023-08-20T10:39:55;35.50;65.30
38788;DHT22;24536;45.488;12.238;2023-08-20T10:42:27;35.50;65.10
38788;DHT22;24536;45.488;12.238;2023-08-20T10:45:05;35.70;65.10
38788;DHT22;24536;45.488;12.238;2023-08-20T10:47:51;35.80;65.30
38788;DHT22;24536;45.488;12.238;2023-08-20T10:50:18;36.00;64.80
38788;DHT22;24536;45.488;12.238;2023-08-20T10:52:55;36.20;64.60
38788;DHT22;24536;45.488;12.238;2023-08-20T10:55:24;36.30;64.20
38788;DHT22;24536;45.488;12.238;2023-08-20T10:57:56;36.40;63.50
38788;DHT22;24536;45.488;12.238;2023-08-20T11:00:22;36.40;62.70
38788;DHT22;24536;45.488;12.238;2023-08-20T11:02:49;36.40;62.80
38788;DHT22;24536;45.488;12.238;2023-08-20T11:05:19;36.30;62.70
38788;DHT22;24536;45.488;12.238;2023-08-20T11:07:47;36.30;63.00
38788;DHT22;24536;45.488;12.238;2023-08-20T11:10:17;36.50;63.50
38788;DHT22;24536;45.488;12.238;2023-08-20T11:12:45;36.70;62.30
38788;DHT22;24536;45.488;12.238;2023-08-20T11:15:11;36.90;62.20
38788;DHT22;24536;45.488;12.238;2023-08-20T11:17:42;37.00;62.40
38788;DHT22;24536;45.488;12.238;2023-08-20T11:20:09;37.30;62.00
38788;DHT22;24536;45.488;12.238;2023-08-20T11:22:38;37.50;60.90
38788;DHT22;24536;45.488;12.238;2023-08-20T11:25:05;37.60;60.40
38788;DHT22;24536;45.488;12.238;2023-08-20T11:27:30;37.60;60.10
38788;DHT22;24536;45.488;12.238;2023-08-20T11:30:05;37.70;60.20
38788;DHT22;24536;45.488;12.238;2023-08-20T11:32:38;37.70;60.30
38788;DHT22;24536;45.488;12.238;2023-08-20T11:35:07;37.90;59.90
38788;DHT22;24536;45.488;12.238;2023-08-20T11:37:33;38.10;59.80
38788;DHT22;24536;45.488;12.238;2023-08-20T11:39:59;38.30;59.50
38788;DHT22;24536;45.488;12.238;2023-08-20T11:42:25;38.50;59.50
38788;DHT22;24536;45.488;12.238;2023-08-20T11:44:55;38.70;59.50
38788;DHT22;24536;45.488;12.238;2023-08-20T11:47:21;39.00;58.70
38788;DHT22;24536;45.488;12.238;2023-08-20T11:49:46;39.20;57.90
38788;DHT22;24536;45.488;12.238;2023-08-20T11:52:12;39.40;57.60
38788;DHT22;24536;45.488;12.238;2023-08-20T11:54:38;39.60;57.40
38788;DHT22;24536;45.488;12.238;2023-08-20T11:57:05;39.80;56.80
38788;DHT22;24536;45.488;12.238;2023-08-20T11:59:32;40.00;56.40
38788;DHT22;24536;45.488;12.238;2023-08-20T12:01:59;40.30;56.40
38788;DHT22;24536;45.488;12.238;2023-08-20T12:04:31;40.40;55.50
38788;DHT22;24536;45.488;12.238;2023-08-20T12:07:12;40.60;54.60
38788;DHT22;24536;45.488;12.238;2023-08-20T12:09:39;40.70;54.80
38788;DHT22;24536;45.488;12.238;2023-08-20T12:12:06;40.80;54.60
38788;DHT22;24536;45.488;12.238;2023-08-20T12:14:32;40.90;53.50
38788;DHT22;24536;45.488;12.238;2023-08-20T12:16:57;40.90;53.70
38788;DHT22;24536;45.488;12.238;2023-08-20T12:19:24;41.00;53.40
38788;DHT22;24536;45.488;12.238;2023-08-20T12:21:50;41.20;53.80
38788;DHT22;24536;45.488;12.238;2023-08-20T12:24:16;41.20;53.90
38788;DHT22;24536;45.488;12.238;2023-08-20T12:26:42;41.40;53.50
38788;DHT22;24536;45.488;12.238;2023-08-20T12:29:08;41.50;53.70
38788;DHT22;24536;45.488;12.238;2023-08-20T12:31:34;41.50;53.40
38788;DHT22;24536;45.488;12.238;2023-08-20T12:34:00;41.60;53.50
38788;DHT22;24536;45.488;12.238;2023-08-20T12:36:27;41.70;53.20
38788;DHT22;24536;45.488;12.238;2023-08-20T12:38:53;41.70;53.40
38788;DHT22;24536;45.488;12.238;2023-08-20T12:41:19;41.70;53.10
38788;DHT22;24536;45.488;12.238;2023-08-20T12:43:45;41.70;52.50
38788;DHT22;24536;45.488;12.238;2023-08-20T12:46:10;41.70;52.50
38788;DHT22;24536;45.488;12.238;2023-08-20T12:48:37;41.70;52.00
38788;DHT22;24536;45.488;12.238;2023-08-20T12:51:03;41.70;51.90
38788;DHT22;24536;45.488;12.238;2023-08-20T12:53:29;41.70;51.90
38788;DHT22;24536;45.488;12.238;2023-08-20T12:55:54;41.70;51.70
38788;DHT22;24536;45.488;12.238;2023-08-20T12:58:20;41.70;52.00
38788;DHT22;24536;45.488;12.238;2023-08-20T13:00:46;41.70;51.40
38788;DHT22;24536;45.488;12.238;2023-08-20T13:03:12;41.60;51.20
38788;DHT22;24536;45.488;12.238;2023-08-20T13:05:38;41.50;51.10
38788;DHT22;24536;45.488;12.238;2023-08-20T13:08:04;41.40;51.10
38788;DHT22;24536;45.488;12.238;2023-08-20T13:10:30;41.30;51.40
38788;DHT22;24536;45.488;12.238;2023-08-20T13:13:00;41.30;51.80
38788;DHT22;24536;45.488;12.238;2023-08-20T13:15:27;41.10;51.80
38788;DHT22;24536;45.488;12.238;2023-08-20T13:17:53;41.10;51.90
38788;DHT22;24536;45.488;12.238;2023-08-20T13:20:20;41.00;52.40
38788;DHT22;24536;45.488;12.238;2023-08-20T13:23:01;40.80;52.30
38788;DHT22;24536;45.488;12.238;2023-08-20T13:25:27;40.70;53.10
38788;DHT22;24536;45.488;12.238;2023-08-20T13:27:53;40.60;53.20
38788;DHT22;24536;45.488;12.238;2023-08-20T13:30:20;40.50;53.40
38788;DHT22;24536;45.488;12.238;2023-08-20T13:32:45;40.40;54.00
38788;DHT22;24536;45.488;12.238;2023-08-20T13:35:11;40.30;53.60
38788;DHT22;24536;45.488;12.238;2023-08-20T13:37:37;40.20;53.60
38788;DHT22;24536;45.488;12.238;2023-08-20T13:40:03;40.10;53.40
38788;DHT22;24536;45.488;12.238;2023-08-20T13:42:37;39.90;53.40
38788;DHT22;24536;45.488;12.238;2023-08-20T13:45:15;39.90;53.60
38788;DHT22;24536;45.488;12.238;2023-08-20T13:47:49;39.80;53.70
38788;DHT22;24536;45.488;12.238;2023-08-20T13:50:15;39.60;53.70
38788;DHT22;24536;45.488;12.238;2023-08-20T13:52:41;39.50;54.40
38788;DHT22;24536;45.488;12.238;2023-08-20T13:55:07;39.40;54.60
38788;DHT22;24536;45.488;12.238;2023-08-20T13:57:46;39.30;55.00
38788;DHT22;24536;45.488;12.238;2023-08-20T14:00:16;39.20;55.40
38788;DHT22;24536;45.488;12.238;2023-08-20T14:02:42;39.00;55.60
38788;DHT22;24536;45.488;12.238;2023-08-20T14:05:08;38.90;55.20
38788;DHT22;24536;45.488;12.238;2023-08-20T14:07:34;38.80;55.10
38788;DHT22;24536;45.488;12.238;2023-08-20T14:10:01;38.80;55.10
38788;DHT22;24536;45.488;12.238;2023-08-20T14:12:27;38.70;55.00
38788;DHT22;24536;45.488;12.238;2023-08-20T14:14:53;38.50;55.50
38788;DHT22;24536;45.488;12.238;2023-08-20T14:17:18;38.30;55.70
38788;DHT22;24536;45.488;12.238;2023-08-20T14:19:44;38.10;56.00
38788;DHT22;24536;45.488;12.238;2023-08-20T14:22:10;37.90;56.60
38788;DHT22;24536;45.488;12.238;2023-08-20T14:24:35;37.80;57.50
38788;DHT22;24536;45.488;12.238;2023-08-20T14:27:01;37.60;57.60
38788;DHT22;24536;45.488;12.238;2023-08-20T14:29:28;37.40;57.70
38788;DHT22;24536;45.488;12.238;2023-08-20T14:31:54;37.30;57.60
38788;DHT22;24536;45.488;12.238;2023-08-20T14:34:19;37.10;57.80
38788;DHT22;24536;45.488;12.238;2023-08-20T14:36:45;37.00;57.90
38788;DHT22;24536;45.488;12.238;2023-08-20T14:39:10;36.90;58.20
38788;DHT22;24536;45.488;12.238;2023-08-20T14:41:36;36.80;58.40
38788;DHT22;24536;45.488;12.238;2023-08-20T14:44:02;36.60;58.80
38788;DHT22;24536;45.488;12.238;2023-08-20T14:46:28;36.50;58.40
38788;DHT22;24536;45.488;12.238;2023-08-20T14:48:55;36.40;59.00
38788;DHT22;24536;45.488;12.238;2023-08-20T14:51:21;36.30;59.00
38788;DHT22;24536;45.488;12.238;2023-08-20T14:53:48;36.30;59.20
38788;DHT22;24536;45.488;12.238;2023-08-20T14:56:13;36.20;59.40
38788;DHT22;24536;45.488;12.238;2023-08-20T14:58:39;36.20;59.60
38788;DHT22;24536;45.488;12.238;2023-08-20T15:01:05;36.10;59.70
38788;DHT22;24536;45.488;12.238;2023-08-20T15:03:30;36.10;59.70
38788;DHT22;24536;45.488;12.238;2023-08-20T15:05:56;36.00;59.80
38788;DHT22;24536;45.488;12.238;2023-08-20T15:08:23;36.00;60.20
38788;DHT22;24536;45.488;12.238;2023-08-20T15:11:03;35.90;60.30
38788;DHT22;24536;45.488;12.238;2023-08-20T15:13:30;35.90;60.00
38788;DHT22;24536;45.488;12.238;2023-08-20T15:15:56;35.80;60.00
38788;DHT22;24536;45.488;12.238;2023-08-20T15:18:23;35.70;59.90
38788;DHT22;24536;45.488;12.238;2023-08-20T15:20:58;35.70;60.30
38788;DHT22;24536;45.488;12.238;2023-08-20T15:23:25;35.60;60.50
38788;DHT22;24536;45.488;12.238;2023-08-20T15:25:52;35.50;60.30
38788;DHT22;24536;45.488;12.238;2023-08-20T15:28:24;35.50;60.90
38788;DHT22;24536;45.488;12.238;2023-08-20T15:30:56;35.40;60.60
38788;DHT22;24536;45.488;12.238;2023-08-20T15:33:29;35.30;60.80
38788;DHT22;24536;45.488;12.238;2023-08-20T15:35:57;35.30;60.50
38788;DHT22;24536;45.488;12.238;2023-08-20T15:38:23;35.30;60.30
38788;DHT22;24536;45.488;12.238;2023-08-20T15:40:49;35.30;60.40
38788;DHT22;24536;45.488;12.238;2023-08-20T15:43:15;35.30;60.30
38788;DHT22;24536;45.488;12.238;2023-08-20T15:45:41;35.20;60.30
38788;DHT22;24536;45.488;12.238;2023-08-20T15:48:07;35.20;60.40
38788;DHT22;24536;45.488;12.238;2023-08-20T15:50:33;35.20;60.50
38788;DHT22;24536;45.488;12.238;2023-08-20T15:52:59;35.10;60.20
38788;DHT22;24536;45.488;12.238;2023-08-20T15:55:25;35.10;60.20
38788;DHT22;24536;45.488;12.238;2023-08-20T15:57:50;35.10;60.40
38788;DHT22;24536;45.488;12.238;2023-08-20T16:00:16;35.10;60.60
38788;DHT22;24536;45.488;12.238;2023-08-20T16:02:43;35.10;60.60
38788;DHT22;24536;45.488;12.238;2023-08-20T16:05:09;35.10;60.60
38788;DHT22;24536;45.488;12.238;2023-08-20T16:07:36;35.10;60.50
38788;DHT22;24536;45.488;12.238;2023-08-20T16:10:03;35.10;60.40
38788;DHT22;24536;45.488;12.238;2023-08-20T16:12:33;35.00;60.40
38788;DHT22;24536;45.488;12.238;2023-08-20T16:15:00;35.00;60.60
38788;DHT22;24536;45.488;12.238;2023-08-20T16:17:25;34.90;60.60
38788;DHT22;24536;45.488;12.238;2023-08-20T16:19:51;34.90;60.70